createdAt,value
2022-08-12T00:01:26.935Z,2.20
2022-08-12T00:04:52.071Z,2.40
2022-08-12T00:07:59.430Z,2.37
2022-08-12T00:11:09.792Z,2.30
2022-08-12T00:14:18.304Z,2.57
2022-08-12T00:17:24.597Z,2.30
2022-08-12T00:20:30.215Z,2.53
2022-08-12T00:23:39.419Z,2.37
2022-08-12T00:26:45.781Z,2.40
2022-08-12T00:29:52.791Z,2.40
2022-08-12T00:32:59.305Z,2.03
2022-08-12T00:36:32.118Z,2.47
2022-08-12T00:39:37.521Z,2.23
2022-08-12T00:42:25.761Z,2.27
2022-08-12T00:45:12.799Z,2.43
2022-08-12T00:47:59.863Z,2.30
2022-08-12T00:50:49.985Z,2.33
2022-08-12T00:53:38.046Z,2.20
2022-08-12T00:56:27.878Z,2.20
2022-08-12T00:59:16.034Z,2.10
2022-08-12T01:02:12.287Z,2.30
2022-08-12T01:05:39.681Z,2.40
2022-08-12T01:08:49.628Z,2.37
2022-08-12T01:11:37.002Z,2.20
2022-08-12T01:14:25.203Z,2.30
2022-08-12T01:17:13.002Z,2.40
2022-08-12T01:20:07.081Z,2.90
2022-08-12T01:23:27.398Z,2.50
2022-08-12T01:26:21.255Z,2.17
2022-08-12T01:29:13.063Z,2.53
2022-08-12T01:32:08.975Z,2.53
2022-08-12T01:35:14.645Z,2.17
2022-08-12T01:38:05.923Z,2.40
2022-08-12T01:40:58.028Z,2.57
2022-08-12T01:43:46.161Z,2.40
2022-08-12T01:46:52.413Z,2.30
2022-08-12T01:49:39.746Z,2.50
2022-08-12T01:52:39.015Z,2.60
2022-08-12T01:55:33.548Z,2.70
2022-08-12T01:58:57.265Z,3.07
2022-08-12T02:01:47.830Z,2.83
2022-08-12T02:05:10.309Z,3.00
2022-08-12T02:08:37.747Z,2.87
2022-08-12T02:11:31.839Z,3.33
2022-08-12T02:14:40.580Z,2.90
2022-08-12T02:18:00.194Z,2.73
2022-08-12T02:21:00.550Z,2.80
2022-08-12T02:23:49.287Z,2.90
2022-08-12T02:26:40.195Z,3.00
2022-08-12T02:29:27.494Z,3.53
2022-08-12T02:32:15.347Z,3.47
2022-08-12T02:35:02.950Z,3.47
2022-08-12T02:37:55.858Z,3.43
2022-08-12T02:40:44.809Z,3.23
2022-08-12T02:43:55.802Z,3.10
2022-08-12T02:46:49.154Z,3.07
2022-08-12T02:49:44.874Z,3.00
2022-08-12T02:52:34.540Z,2.93
2022-08-12T02:55:28.263Z,3.37
2022-08-12T02:58:21.387Z,3.50
2022-08-12T03:01:25.096Z,3.03
2022-08-12T03:04:30.399Z,3.00
2022-08-12T03:07:32.680Z,2.93
2022-08-12T03:10:41.532Z,3.07
2022-08-12T03:13:39.067Z,3.43
2022-08-12T03:16:30.211Z,3.50
2022-08-12T03:19:21.127Z,3.50
2022-08-12T03:22:14.615Z,3.33
2022-08-12T03:25:05.560Z,3.40
2022-08-12T03:27:58.301Z,3.40
2022-08-12T03:30:49.971Z,3.70
2022-08-12T03:33:48.194Z,3.67
2022-08-12T03:36:48.798Z,3.40
2022-08-12T03:39:38.887Z,3.37
2022-08-12T03:42:40.925Z,3.13
2022-08-12T03:45:51.950Z,3.30
2022-08-12T03:49:01.492Z,3.73
2022-08-12T03:52:07.072Z,3.23
2022-08-12T03:55:13.034Z,3.60
2022-08-12T03:58:21.023Z,3.60
2022-08-12T04:01:08.519Z,3.30
2022-08-12T04:03:55.805Z,3.90
2022-08-12T04:06:47.577Z,3.30
2022-08-12T04:09:36.296Z,3.83
2022-08-12T04:12:45.706Z,3.57
2022-08-12T04:15:33.553Z,3.43
2022-08-12T04:18:21.350Z,3.60
2022-08-12T04:21:11.181Z,3.67
2022-08-12T04:23:58.730Z,3.97
2022-08-12T04:26:45.915Z,3.67
2022-08-12T04:30:32.063Z,3.50
2022-08-12T04:32:44.396Z,3.80
2022-08-12T04:35:31.729Z,3.57
2022-08-12T04:38:20.049Z,3.90
2022-08-12T04:41:07.522Z,4.40
2022-08-12T04:44:02.272Z,3.53
2022-08-12T04:46:49.498Z,4.30
2022-08-12T04:49:36.990Z,4.03
2022-08-12T04:52:24.603Z,4.20
2022-08-12T04:55:12.844Z,4.53
2022-08-12T04:58:00.313Z,3.83
2022-08-12T05:00:47.559Z,4.13
2022-08-12T05:03:46.655Z,3.80
2022-08-12T05:06:34.598Z,4.27
2022-08-12T05:09:21.966Z,4.13
2022-08-12T05:12:09.221Z,4.00
2022-08-12T05:14:56.214Z,4.17
2022-08-12T05:17:43.720Z,4.60
2022-08-12T05:20:30.916Z,4.00
2022-08-12T05:23:20.078Z,4.20
2022-08-12T05:26:07.498Z,4.20
2022-08-12T05:28:54.553Z,4.20
2022-08-12T05:31:48.434Z,4.30
2022-08-12T05:34:35.662Z,4.17
2022-08-12T05:37:23.710Z,3.20
2022-08-12T05:40:11.797Z,4.57
2022-08-12T05:42:58.937Z,4.30
2022-08-12T05:45:47.467Z,4.30
2022-08-12T05:48:34.786Z,3.97
2022-08-12T05:51:39.931Z,3.97
2022-08-12T05:54:47.662Z,4.33
2022-08-12T05:57:35.209Z,3.67
2022-08-12T06:00:25.841Z,3.90
2022-08-12T06:03:14.195Z,4.20
2022-08-12T06:06:01.285Z,4.17
2022-08-12T06:08:53.681Z,3.67
2022-08-12T06:11:54.026Z,3.73
2022-08-12T06:14:55.863Z,3.57
2022-08-12T06:17:43.771Z,4.07
2022-08-12T06:20:34.296Z,3.50
2022-08-12T06:23:21.472Z,4.00
2022-08-12T06:26:11.665Z,3.23
2022-08-12T06:29:00.859Z,3.60
2022-08-12T06:31:50.742Z,3.17
2022-08-12T06:35:26.065Z,2.93
2022-08-12T06:37:51.501Z,3.13
2022-08-12T06:41:05.411Z,3.80
2022-08-12T06:44:06.016Z,3.50
2022-08-12T06:46:55.092Z,3.17
2022-08-12T06:49:45.313Z,3.33
2022-08-12T06:52:32.446Z,3.30
2022-08-12T06:55:20.907Z,3.30
2022-08-12T06:58:10.445Z,3.70
2022-08-12T07:00:59.505Z,3.33
2022-08-12T07:03:47.230Z,3.40
2022-08-12T07:06:34.560Z,3.20
2022-08-12T07:10:06.907Z,3.37
2022-08-12T07:12:30.385Z,3.10
2022-08-12T07:15:20.410Z,3.23
2022-08-12T07:18:13.337Z,3.30
2022-08-12T07:21:04.154Z,3.20
2022-08-12T07:23:51.154Z,3.70
2022-08-12T07:26:44.310Z,3.00
2022-08-12T07:29:57.897Z,3.53
2022-08-12T07:32:38.724Z,3.63
2022-08-12T07:35:25.764Z,3.40
2022-08-12T07:38:42.368Z,2.90
2022-08-12T07:41:31.911Z,3.00
2022-08-12T07:44:19.022Z,3.00
2022-08-12T07:47:08.107Z,3.05
2022-08-12T07:50:05.745Z,2.90
2022-08-12T07:52:53.376Z,3.42
2022-08-12T07:55:40.433Z,3.10
2022-08-12T07:58:27.422Z,3.88
2022-08-12T08:01:17.613Z,3.00
2022-08-12T08:04:24.030Z,3.55
2022-08-12T08:07:11.542Z,3.15
2022-08-12T08:10:00.925Z,3.10
2022-08-12T08:12:53.848Z,2.67
2022-08-12T08:16:02.508Z,2.88
2022-08-12T08:18:49.655Z,2.60
2022-08-12T08:21:36.866Z,2.90
2022-08-12T08:24:27.006Z,2.85
2022-08-12T08:27:14.013Z,2.72
2022-08-12T08:30:02.501Z,2.78
2022-08-12T08:32:49.930Z,2.90
2022-08-12T08:35:46.254Z,3.13
2022-08-12T08:38:35.465Z,2.58
2022-08-12T08:42:16.578Z,2.83
2022-08-12T08:44:53.964Z,2.83
2022-08-12T08:47:46.394Z,2.50
2022-08-12T08:50:33.599Z,2.42
2022-08-12T08:53:20.691Z,2.55
2022-08-12T08:56:11.083Z,2.65
2022-08-12T08:59:00.238Z,2.63
2022-08-12T09:01:47.994Z,2.63
2022-08-12T09:05:12.171Z,2.30
2022-08-12T09:14:11.530Z,2.05
2022-08-12T09:16:59.754Z,2.47
2022-08-12T09:19:46.966Z,2.33
2022-08-12T09:22:35.131Z,2.03
2022-08-12T09:25:26.389Z,2.70
2022-08-12T09:28:30.883Z,2.47
2022-08-12T09:32:08.006Z,2.47
2022-08-12T09:34:33.617Z,2.10
2022-08-12T09:37:28.387Z,2.40
2022-08-12T09:40:57.533Z,2.30
2022-08-12T09:44:05.435Z,2.20
2022-08-12T09:46:52.714Z,2.22
2022-08-12T09:49:42.521Z,2.47
2022-08-12T09:52:32.160Z,2.25
2022-08-12T09:56:05.799Z,1.90
2022-08-12T09:58:57.354Z,2.20
2022-08-12T10:02:42.704Z,2.30
2022-08-12T10:04:51.562Z,2.25
2022-08-12T10:07:40.685Z,2.35
2022-08-12T10:10:30.159Z,2.13
2022-08-12T10:13:41.816Z,2.47
2022-08-12T10:16:36.811Z,2.20
2022-08-12T10:19:36.773Z,2.10
2022-08-12T10:22:39.215Z,2.10
2022-08-12T10:26:18.346Z,2.15
2022-08-12T10:29:15.760Z,2.30
2022-08-12T10:32:44.654Z,2.15
2022-08-12T10:35:38.268Z,2.05
2022-08-12T10:38:34.992Z,2.42
2022-08-12T10:41:57.893Z,2.50
2022-08-12T10:44:46.918Z,2.40
2022-08-12T10:48:19.898Z,2.35
2022-08-12T10:51:01.998Z,2.15
2022-08-12T10:53:52.737Z,2.22
2022-08-12T10:56:40.630Z,2.28
2022-08-12T11:00:35.980Z,2.05
2022-08-12T11:04:27.480Z,2.15
2022-08-12T11:07:06.727Z,2.10
2022-08-12T11:09:07.229Z,2.20
2022-08-12T11:12:34.838Z,1.90
2022-08-12T11:15:19.219Z,2.10
2022-08-12T11:18:18.538Z,2.10
2022-08-12T11:21:06.318Z,1.92
2022-08-12T11:23:53.531Z,1.98
2022-08-12T11:26:41.013Z,1.90
2022-08-12T11:30:02.581Z,1.90
2022-08-12T11:32:39.024Z,2.22
2022-08-12T11:35:29.528Z,1.90
2022-08-12T11:38:20.289Z,2.17
2022-08-12T11:41:07.557Z,1.90
2022-08-12T11:43:58.312Z,2.10
2022-08-12T11:46:45.876Z,2.03
2022-08-12T11:49:38.560Z,2.05
2022-08-12T11:52:54.953Z,2.10
2022-08-12T11:55:33.157Z,2.03
2022-08-12T11:59:27.529Z,2.25
2022-08-12T12:02:02.556Z,1.98
2022-08-12T12:04:35.041Z,2.13
2022-08-12T12:07:33.711Z,1.80
2022-08-12T12:10:29.866Z,2.40
2022-08-12T12:14:05.362Z,2.45
2022-08-12T12:16:24.781Z,2.25
2022-08-12T12:19:11.825Z,2.17
2022-08-12T12:21:58.805Z,2.08
2022-08-12T12:24:50.886Z,2.10
2022-08-12T12:28:05.375Z,2.03
2022-08-12T12:30:54.492Z,1.85
2022-08-12T12:33:56.854Z,1.95
2022-08-12T12:36:48.978Z,2.22
2022-08-12T12:39:54.678Z,2.00
2022-08-12T12:42:55.832Z,2.20
2022-08-12T12:45:47.432Z,2.20
2022-08-12T12:48:34.376Z,1.90
2022-08-12T12:51:22.226Z,1.90
2022-08-12T12:54:29.149Z,2.38
2022-08-12T12:57:16.820Z,2.28
2022-08-12T13:00:15.434Z,1.95
2022-08-12T13:03:02.498Z,2.10
2022-08-12T13:05:53.731Z,1.90
2022-08-12T13:08:41.009Z,1.83
2022-08-12T13:11:42.261Z,1.90
2022-08-12T13:14:35.182Z,1.80
2022-08-12T13:17:26.596Z,2.08
2022-08-12T13:20:37.872Z,2.10
2022-08-12T13:23:35.897Z,1.60
2022-08-12T13:26:23.572Z,1.75
2022-08-12T13:29:13.022Z,1.95
2022-08-12T13:32:18.675Z,2.08
2022-08-12T13:35:19.999Z,1.80
2022-08-12T13:38:26.869Z,2.40
2022-08-12T13:41:34.346Z,2.10
2022-08-12T13:44:22.821Z,2.22
2022-08-12T13:47:12.383Z,2.05
2022-08-12T13:50:09.467Z,1.73
2022-08-12T13:52:57.178Z,1.90
2022-08-12T13:55:46.203Z,2.30
2022-08-12T13:58:37.437Z,2.05
2022-08-12T14:01:24.402Z,1.83
2022-08-12T14:04:12.392Z,2.17
2022-08-12T14:07:02.913Z,2.00
2022-08-12T14:10:09.246Z,2.05
2022-08-12T14:12:57.819Z,2.10
2022-08-12T14:15:53.052Z,2.00
2022-08-12T14:18:42.211Z,2.08
2022-08-12T14:21:30.106Z,1.77
2022-08-12T14:24:40.464Z,2.03
2022-08-12T14:28:02.622Z,1.98
2022-08-12T14:30:36.445Z,2.03
2022-08-12T14:33:25.213Z,2.30
2022-08-12T14:36:12.834Z,1.90
2022-08-12T14:39:00.171Z,1.83
2022-08-12T14:41:57.150Z,2.00
2022-08-12T14:44:57.505Z,2.00
2022-08-12T14:47:53.719Z,2.15
2022-08-12T14:51:03.139Z,1.95
2022-08-12T14:55:50.775Z,1.90
2022-08-12T14:57:20.691Z,2.03
2022-08-12T15:00:30.224Z,2.03
2022-08-12T15:03:17.358Z,1.88
2022-08-12T15:06:44.490Z,1.80
2022-08-12T15:09:16.392Z,2.22
2022-08-12T15:12:04.434Z,2.28
2022-08-12T15:14:53.847Z,2.10
2022-08-12T15:17:40.935Z,2.08
2022-08-12T15:20:32.978Z,1.80
2022-08-12T15:23:29.304Z,2.10
2022-08-12T15:26:21.252Z,1.83
2022-08-12T15:29:16.951Z,2.00
2022-08-12T15:32:10.651Z,2.00
2022-08-12T15:34:58.467Z,1.90
2022-08-12T15:38:10.519Z,1.75
2022-08-12T15:40:53.377Z,2.15
2022-08-12T15:44:16.925Z,1.85
2022-08-12T15:46:48.070Z,1.92
2022-08-12T15:49:43.050Z,1.83
2022-08-12T15:52:42.257Z,2.30
2022-08-12T15:55:33.809Z,1.92
2022-08-12T15:58:21.893Z,1.90
2022-08-12T16:01:15.065Z,1.70
2022-08-12T16:04:02.171Z,1.92
2022-08-12T16:07:05.802Z,2.00
2022-08-12T16:10:06.647Z,1.90
2022-08-12T16:12:57.838Z,1.70
2022-08-12T16:15:51.126Z,2.10
2022-08-12T16:18:49.978Z,2.10
2022-08-12T16:21:52.095Z,1.90
2022-08-12T16:24:48.001Z,2.10
2022-08-12T16:27:41.887Z,2.13
2022-08-12T16:30:34.241Z,2.17
2022-08-12T16:33:58.840Z,1.80
2022-08-12T16:36:46.002Z,1.80
2022-08-12T16:39:57.339Z,1.80
2022-08-12T16:42:53.940Z,1.70
2022-08-12T16:46:23.445Z,1.70
2022-08-12T16:48:56.365Z,1.70
2022-08-12T16:51:45.987Z,2.35
2022-08-12T16:54:36.331Z,2.13
2022-08-12T16:57:35.129Z,1.85
2022-08-12T17:00:24.150Z,1.80
2022-08-12T17:03:12.779Z,1.92
2022-08-12T17:06:19.728Z,1.85
2022-08-12T17:09:17.294Z,1.80
2022-08-12T17:12:05.587Z,2.10
2022-08-12T17:14:53.028Z,1.63
2022-08-12T17:17:42.144Z,1.80
2022-08-12T17:20:37.441Z,1.92
2022-08-12T17:23:28.594Z,1.70
2022-08-12T17:26:37.234Z,1.67
2022-08-12T17:30:00.348Z,1.73
2022-08-12T17:32:35.919Z,2.10
2022-08-12T17:35:37.543Z,1.70
2022-08-12T17:38:30.591Z,1.90
2022-08-12T17:41:22.431Z,1.48
2022-08-12T17:44:10.450Z,1.38
2022-08-12T17:47:01.233Z,1.80
2022-08-12T17:50:02.375Z,1.60
2022-08-12T17:52:51.937Z,1.85
2022-08-12T17:55:48.194Z,1.45
2022-08-12T17:58:38.143Z,1.50
2022-08-12T18:01:25.602Z,1.50
2022-08-12T18:04:22.194Z,1.70
2022-08-12T18:07:23.713Z,1.40
2022-08-12T18:10:35.914Z,1.50
2022-08-12T18:13:40.307Z,1.50
2022-08-12T18:16:29.570Z,1.73
2022-08-12T18:19:17.622Z,1.45
2022-08-12T18:22:05.412Z,1.42
2022-08-12T18:25:02.401Z,1.30
2022-08-12T18:28:16.205Z,1.50
2022-08-12T18:31:03.388Z,1.48
2022-08-12T18:33:52.452Z,1.50
2022-08-12T18:36:40.841Z,1.30
2022-08-12T18:39:57.758Z,1.23
2022-08-12T18:42:54.408Z,1.20
2022-08-12T18:45:47.163Z,1.38
2022-08-12T18:48:44.350Z,1.30
2022-08-12T18:51:34.155Z,1.48
2022-08-12T18:54:36.245Z,1.20
2022-08-12T18:58:06.118Z,1.20
2022-08-12T19:00:34.252Z,1.40
2022-08-12T19:03:39.143Z,1.40
2022-08-12T19:06:35.683Z,1.23
2022-08-12T19:09:57.465Z,1.20
2022-08-12T19:13:03.268Z,1.00
2022-08-12T19:15:57.402Z,0.95
2022-08-12T19:18:46.415Z,1.10
2022-08-12T19:21:39.405Z,1.30
2022-08-12T19:24:46.581Z,1.25
2022-08-12T19:27:34.602Z,1.40
2022-08-12T19:30:55.543Z,1.47
2022-08-12T19:33:52.103Z,1.35
2022-08-12T19:36:50.426Z,1.30
2022-08-12T19:40:08.669Z,1.40
2022-08-12T19:42:53.489Z,1.43
2022-08-12T19:45:48.888Z,1.30
2022-08-12T19:48:37.434Z,1.27
2022-08-12T19:51:35.874Z,1.30
2022-08-12T19:54:23.115Z,1.20
2022-08-12T19:57:18.858Z,1.20
2022-08-12T20:00:07.901Z,1.10
2022-08-12T20:03:00.432Z,1.50
2022-08-12T20:06:06.898Z,1.20
2022-08-12T20:08:57.294Z,1.17
2022-08-12T20:12:12.526Z,1.10
2022-08-12T20:14:53.418Z,1.20
2022-08-12T20:17:50.492Z,1.10
2022-08-12T20:20:39.042Z,1.40
2022-08-12T20:23:50.770Z,1.30
2022-08-12T20:26:41.827Z,1.30
2022-08-12T20:29:35.582Z,1.40
2022-08-12T20:32:29.418Z,1.40
2022-08-12T20:35:18.275Z,1.60
2022-08-12T20:38:26.612Z,1.30
2022-08-12T20:41:16.183Z,1.63
2022-08-12T20:44:03.633Z,1.53
2022-08-12T20:46:50.667Z,2.00
2022-08-12T20:49:42.081Z,1.60
2022-08-12T20:52:34.142Z,1.60
2022-08-12T20:55:22.218Z,1.70
2022-08-12T20:58:30.373Z,1.30
2022-08-12T21:01:23.835Z,1.80
2022-08-12T21:04:56.467Z,1.83
2022-08-12T21:07:51.643Z,1.57
2022-08-12T21:10:38.930Z,1.40
2022-08-12T21:13:29.596Z,1.20
2022-08-12T21:16:35.503Z,1.50
2022-08-12T21:19:52.091Z,1.57
2022-08-12T21:22:35.020Z,1.30
2022-08-12T21:25:25.582Z,1.07
2022-08-12T21:28:30.886Z,1.23
2022-08-12T21:32:36.761Z,1.30
2022-08-12T21:34:29.286Z,1.30
2022-08-12T21:37:27.311Z,1.30
2022-08-12T21:40:15.139Z,1.43
2022-08-12T21:43:04.354Z,1.40
2022-08-12T21:46:00.141Z,1.50
2022-08-12T21:48:49.259Z,1.37
2022-08-12T21:51:50.252Z,1.23
2022-08-12T21:54:42.664Z,1.40
2022-08-12T21:57:36.364Z,1.67
2022-08-12T22:00:40.174Z,1.60
2022-08-12T22:04:02.937Z,1.70
2022-08-12T22:06:55.786Z,1.67
2022-08-12T22:09:46.327Z,1.67
2022-08-12T22:12:34.782Z,1.60
2022-08-12T22:15:24.857Z,1.60
2022-08-12T22:18:13.030Z,1.70
2022-08-12T22:21:03.114Z,1.50
2022-08-12T22:24:04.067Z,1.60
2022-08-12T22:26:52.433Z,1.80
2022-08-12T22:29:57.710Z,1.63
2022-08-12T22:32:50.711Z,1.87
2022-08-12T22:35:55.844Z,1.70
2022-08-12T22:38:46.595Z,2.17
2022-08-12T22:41:57.004Z,1.80
2022-08-12T22:45:03.185Z,1.90
2022-08-12T22:47:55.672Z,2.10
2022-08-12T22:50:43.200Z,1.63
2022-08-12T22:53:36.208Z,1.70
2022-08-12T22:56:31.049Z,1.60
2022-08-12T22:59:18.549Z,1.40
2022-08-12T23:02:09.480Z,1.57
2022-08-12T23:04:58.750Z,1.77
2022-08-12T23:07:58.763Z,1.73
2022-08-12T23:10:47.667Z,1.53
2022-08-12T23:13:55.200Z,1.80
2022-08-12T23:16:43.191Z,1.83
2022-08-12T23:19:36.108Z,1.73
2022-08-12T23:23:05.899Z,1.60
2022-08-12T23:25:54.361Z,1.67
2022-08-12T23:28:59.428Z,1.80
2022-08-12T23:32:02.819Z,1.83
2022-08-12T23:34:50.961Z,1.87
2022-08-12T23:37:47.460Z,1.60
2022-08-12T23:40:40.693Z,1.50
2022-08-12T23:43:39.573Z,1.90
2022-08-12T23:46:27.995Z,1.40
2022-08-12T23:49:55.815Z,1.73
2022-08-12T23:52:21.977Z,1.70
2022-08-12T23:55:24.750Z,1.47
2022-08-12T23:58:22.497Z,1.50
